Instrument Rating

REQUIREMENTS:
  • 17 Years of Age
  • Private Pilot Certificate
  • Read, speak & understand the English language
  • 3rd Class Medical Certificate
  • Pass Written, Oral & Flight Test
AVERAGE TRAINING ESTIMATE:
  • 15 Hours in a Katana DA-20
  • 25 Hours in Diamond Star DA-40
  • 60 Hours of Instrument Instruction
MATERIALS:
Instrument Pilot Kit & Charts

**Please Note: Times are ESTIMATED and TOTAL HOURS each student may need to achieve competency may vary per individual. Students will require approximately 45 hours of P.I.C. Cross Country time prior to course completion.

ASK ABOUT OUR FAA APPROVED PART 141 TRAINING PROGRAM FOR THIS COURSE!

 

NOAA Weather

Smyrna, TN

Last Updated on Aug 21 2017, 12:56 am CDT

Current Conditions: Fair

NOAA Icon

Temp: 72°F

Wind: SE at 3mph

Humidity: 94%

Dewpoint: 70.0°F

Your 5-Day Forecast at a Glance

Available data for KMQY from the past 2 hours
SMYRNA, TN
Metar
KMQY 210556Z AUTO 15003KT 10SM CLR 22/21 A3014 RMK AO2 SLP090 T02220211 10300 20222 403560206 50005

05:56 UTC

Wind: 150° 3kt

Visibility: 10 SM

Sky:

Temp: 22 deg C / 71.6 deg F

Dewpoint: 21 deg C / 69.8 deg F

Pressure: 30.14 inHg

TAF
KMQY 210520Z 2106/2206 VRB04KT P6SM SCT050